aviador You're here:

GMMZ Decoded Metar

OUARZAZATE in MOROCCO
Report Time2018-02-20 13:00:00
UTC Time2018-02-20 13:54:55
Flight Rules vfr VFR
Wind320° at 03 kt
W.Decomp.*RWY 30: 2.7 kt HW 1.3 kt RCW
W.Rank320° ranks 13
Current wind is below 320° avg. (9.6)
Visibility9999 m
Phenomena:N/A
Clouds:Few 020 Hf
Expected CloudBase > 8,800 ft AGL from Temp-Dew spread
CeilingNone
Temp17°C (ISA +9)
Dew Point-5°C (22% RH)
AAT13.3°C
QNH1013 hPa
Density Alt4,902 ft
Elevation3,740 ft
Report Wrong Elevation
Raw Report
GMMZ 201300Z 32003KT 9999 FEW020 17/M05 Q1013 NOSIG=

Extra information for GMMZ:More info

Metar Taf Metar & Taf Last 4 Metars F.Rules Stats Wind Profile Meteogram Temp Stats Airport Information Weather charts Add Link Nearby VenuesMetar ALERT Operation Metar Decoded Social comments